AGROMETEOROLOŠKI PORTAL

vinorodna pokrajina

Temelj dobrega kmetovanja

Pregled podatkov za lokacijo Bistrica ob Sotli, meteorološka postaja 863829

Pregled senzorjev na lokaciji

ID Ime Zadnja
vrednost
Datum in čas
meritve
(lokalni čas)
Tip
senzorja
4416 Omočenost lista (1,5 m) (U) 9 U 29.9.2022 12:00 A730WET
4949 Padavine (mm) 5,2 mm 29.9.2022 12:00 Generic 0.2 mm
6092 Relativna zračna vlaga (2 m) (%RH) 100 %RH 29.9.2022 12:00 50YA
6091 Temperatura (2 m) (°C) 9,7 °C 29.9.2022 12:00 50YA

Pregled podatkov zadnjih 24 ur

Zap.
št.
Datum in čas
(lokalni čas)
Bistrica ob Sotli
Omočenost
lista
(1,5
m)
Padavine Relativna
zračna
vlaga
(2
m)
Temperatura
(2
m)
1 29.9.2022 12:00 9 5,2 99,7 9,7
2 29.9.2022 11:30 10 2 99,6 9,8
3 29.9.2022 11:00 10 1,4 99,8 10,5
4 29.9.2022 10:30 10 0,2 99,7 10,9
5 29.9.2022 10:00 10 0,2 99,8 11,4
6 29.9.2022 09:30 10 2,4 99,8 11,9
7 29.9.2022 09:00 10 4,2 99,7 12,3
8 29.9.2022 08:30 10 3,8 99,6 12,4
9 29.9.2022 08:00 10 3,6 99,5 12,4
10 29.9.2022 07:30 10 0 99,4 12,3
11 29.9.2022 07:00 10 0 99,2 12,3
12 29.9.2022 06:30 10 0,2 99,3 12,4
13 29.9.2022 06:00 10 0 99,4 12,4
14 29.9.2022 05:30 10 0 99,3 12,3
15 29.9.2022 05:00 10 0 99,2 12,1
16 29.9.2022 04:30 10 0 99 12
17 29.9.2022 04:00 10 0 99 12
18 29.9.2022 03:30 10 0,2 98,7 12,2
19 29.9.2022 03:00 10 0,8 98,6 12,4
20 29.9.2022 02:30 10 2,2 99 12,3
21 29.9.2022 02:00 10 2,8 98,9 12,2
22 29.9.2022 01:30 10 4 98,6 12,2
23 29.9.2022 01:00 10 3,4 98,2 12,5
24 29.9.2022 00:30 10 3 97,7 12,6
25 29.9.2022 00:00 10 2,4 96 12,7
26 28.9.2022 23:30 10 3 95,1 12,9
27 28.9.2022 23:00 9 2,4 93,4 13,2
28 28.9.2022 22:30 1 0,4 97,2 12,6
29 28.9.2022 22:00 0 0 96,8 12,5
30 28.9.2022 21:30 0 0 96,7 12,3
31 28.9.2022 21:00 0 0 96,9 12,5
32 28.9.2022 20:30 0 0 96,4 12,5
33 28.9.2022 20:00 0 0 95,8 12,7
34 28.9.2022 19:30 0 0 94,7 12,9
35 28.9.2022 19:00 0 0 92,6 13,3
36 28.9.2022 18:30 0 0 85,9 14,5
37 28.9.2022 18:00 0 0 84,4 15,1
38 28.9.2022 17:30 0 0 81,7 15,3
39 28.9.2022 17:00 0 0 81,4 15,2
40 28.9.2022 16:30 0 0 82 14,9
41 28.9.2022 16:00 0 0 83,3 14,6
42 28.9.2022 15:30 0 0 82,3 14,5
43 28.9.2022 15:00 0 0 83,7 14
44 28.9.2022 14:30 0 0 83,9 13,6
45 28.9.2022 14:00 0 0 83,5 13,6
46 28.9.2022 13:30 0 0 83,1 13,5